Time;durP1;ratioP1;P1;durP2;ratioP2;P2;SDS_P1;SDS_P2;PMS_P1;PMS_P2;Temp;Humidity;BMP_temperature;BMP_pressure;BME280_temperature;BME280_humidity;BME280_pressure;Samples;Min_cycle;Max_cycle;Signal;HPM_P1;HPM_P2
2023/07/18 00:00:33;;;;;;;2.88;1.45;;;22.50;93.10;;;;;;7387783;19;20150;-69
2023/07/18 00:03:03;;;;;;;3.30;1.38;;;22.40;92.90;;;;;;7388848;19;20136;-70
2023/07/18 00:05:30;;;;;;;1.73;1.20;;;22.30;93.60;;;;;;7389568;19;20157;-71
2023/07/18 00:07:55;;;;;;;4.18;1.23;;;22.30;93.70;;;;;;7384006;19;20189;-69
2023/07/18 00:10:22;;;;;;;3.10;1.40;;;22.10;93.70;;;;;;7389255;19;20135;-70
2023/07/18 00:12:48;;;;;;;2.03;1.15;;;22.00;94.30;;;;;;7388789;19;20134;-69
2023/07/18 00:15:13;;;;;;;1.60;1.13;;;21.90;93.80;;;;;;7386296;19;20614;-70
2023/07/18 00:17:40;;;;;;;1.33;1.10;;;21.80;94.10;;;;;;7387126;19;20624;-69
2023/07/18 00:20:12;;;;;;;1.88;0.93;;;21.70;95.20;;;;;;7381628;19;20225;-71
2023/07/18 00:22:41;;;;;;;1.98;1.30;;;21.80;94.70;;;;;;7387085;19;20217;-70
2023/07/18 00:25:13;;;;;;;2.38;1.38;;;22.10;95.20;;;;;;7391025;19;20198;-70
2023/07/18 00:27:40;;;;;;;2.30;1.50;;;22.10;95.10;;;;;;7385108;19;20142;-70
2023/07/18 00:30:13;;;;;;;1.80;1.42;;;22.20;95.40;;;;;;7390341;19;20199;-69
2023/07/18 00:32:42;;;;;;;5.00;2.55;;;21.90;95.90;;;;;;7387579;19;20533;-70
2023/07/18 00:35:08;;;;;;;4.40;2.33;;;22.10;96.10;;;;;;7388038;19;20511;-70
2023/07/18 00:37:34;;;;;;;3.67;1.92;;;22.20;96.30;;;;;;7387821;19;20131;-72
2023/07/18 00:40:00;;;;;;;3.58;1.70;;;22.20;96.50;;;;;;7388860;19;20127;-70
2023/07/18 00:42:26;;;;;;;3.47;1.60;;;22.20;96.70;;;;;;7388390;19;20606;-69
2023/07/18 00:44:52;;;;;;;3.28;1.80;;;22.10;96.90;;;;;;7384438;19;20134;-70
2023/07/18 00:47:18;;;;;;;3.10;1.48;;;21.80;97.30;;;;;;7387381;19;20150;-70
2023/07/18 00:49:45;;;;;;;3.53;1.58;;;21.80;97.50;;;;;;7386862;19;20142;-70
2023/07/18 00:52:12;;;;;;;3.40;1.48;;;21.80;97.70;;;;;;7386002;19;20142;-69
2023/07/18 00:54:39;;;;;;;4.22;1.88;;;21.80;98.20;;;;;;7386902;19;20169;-69
2023/07/18 00:57:07;;;;;;;2.90;1.60;;;21.80;98.00;;;;;;7386077;19;20150;-67
2023/07/18 00:59:33;;;;;;;3.03;1.23;;;21.70;98.60;;;;;;7387085;19;20150;-69
2023/07/18 01:01:59;;;;;;;3.28;1.73;;;21.80;98.50;;;;;;7387960;19;20143;-69
2023/07/18 01:04:24;;;;;;;3.92;1.48;;;21.80;98.60;;;;;;7383171;19;20140;-70
2023/07/18 01:06:52;;;;;;;1.98;1.40;;;21.70;98.70;;;;;;7386438;19;20142;-70
2023/07/18 01:09:19;;;;;;;2.25;1.20;;;21.80;98.80;;;;;;7386737;19;20146;-69
2023/07/18 01:11:45;;;;;;;3.92;1.20;;;21.70;99.20;;;;;;7385765;19;20791;-71
2023/07/18 01:14:10;;;;;;;2.28;1.42;;;21.60;99.50;;;;;;7384010;19;20151;-70
2023/07/18 01:16:36;;;;;;;4.88;1.80;;;21.60;99.60;;;;;;7386924;19;20139;-70
2023/07/18 01:19:02;;;;;;;3.75;1.50;;;21.60;99.70;;;;;;7385013;19;20484;-70
2023/07/18 01:21:28;;;;;;;2.92;1.40;;;21.60;99.90;;;;;;7386204;19;20146;-70
2023/07/18 01:23:54;;;;;;;2.60;1.63;;;21.70;99.80;;;;;;7383583;19;20147;-70
2023/07/18 01:26:19;;;;;;;1.38;1.15;;;21.60;99.90;;;;;;7385181;19;20130;-70
2023/07/18 01:28:45;;;;;;;1.42;1.10;;;21.60;99.90;;;;;;7387969;19;20489;-71
2023/07/18 01:31:12;;;;;;;1.98;1.30;;;21.50;99.90;;;;;;7386389;19;20130;-71
2023/07/18 01:33:38;;;;;;;3.30;1.10;;;21.50;99.90;;;;;;7385671;19;20167;-70
2023/07/18 01:36:04;;;;;;;1.90;1.38;;;21.40;99.90;;;;;;7380233;19;20130;-70
2023/07/18 01:38:29;;;;;;;2.83;1.83;;;21.50;99.90;;;;;;7387450;19;20142;-70
2023/07/18 01:40:56;;;;;;;4.75;1.63;;;21.40;99.90;;;;;;7384034;19;20142;-70
2023/07/18 01:43:23;;;;;;;2.72;1.83;;;21.40;99.90;;;;;;7385344;19;20138;-70
2023/07/18 01:45:48;;;;;;;3.67;1.60;;;21.40;99.90;;;;;;7385323;19;20226;-71
2023/07/18 01:48:14;;;;;;;2.90;1.50;;;21.40;99.90;;;;;;7382046;19;20150;-70
2023/07/18 01:50:41;;;;;;;3.05;1.10;;;21.30;99.90;;;;;;7384995;19;20194;-71
2023/07/18 01:53:06;;;;;;;2.30;1.27;;;21.20;99.90;;;;;;7384390;19;20540;-71
2023/07/18 01:55:32;;;;;;;1.42;1.13;;;21.30;99.90;;;;;;7385131;19;20135;-71
2023/07/18 01:57:58;;;;;;;1.20;1.10;;;21.30;99.90;;;;;;7385957;19;20214;-70
2023/07/18 02:00:24;;;;;;;2.00;1.30;;;21.20;99.90;;;;;;7381918;19;20158;-71
2023/07/18 02:02:52;;;;;;;3.08;1.35;;;21.00;99.90;;;;;;7384702;19;20145;-69
2023/07/18 02:05:21;;;;;;;2.15;1.08;;;21.00;99.90;;;;;;7381274;19;20173;-71
2023/07/18 02:07:47;;;;;;;1.63;1.00;;;20.90;99.90;;;;;;7388172;19;20131;-69
2023/07/18 02:10:15;;;;;;;1.77;0.90;;;20.70;99.90;;;;;;7392855;19;20139;-70
2023/07/18 02:12:41;;;;;;;1.00;0.75;;;20.60;99.90;;;;;;7388756;19;20139;-70
2023/07/18 02:15:07;;;;;;;2.00;1.15;;;20.70;99.90;;;;;;7385985;19;20149;-70
2023/07/18 02:17:34;;;;;;;3.15;1.30;;;20.80;99.90;;;;;;7390137;19;20214;-71
2023/07/18 02:20:05;;;;;;;2.35;1.40;;;20.90;99.90;;;;;;7392423;19;20142;-70
2023/07/18 02:22:34;;;;;;;2.50;1.00;;;21.00;99.90;;;;;;7390109;19;20145;-70
2023/07/18 02:25:00;;;;;;;2.20;0.88;;;20.80;99.90;;;;;;7389345;19;20150;-71
2023/07/18 02:27:26;;;;;;;3.95;1.30;;;20.90;99.90;;;;;;7388906;19;20619;-71
2023/07/18 02:29:52;;;;;;;1.83;0.88;;;20.70;99.90;;;;;;7390271;19;20142;-70
2023/07/18 02:32:17;;;;;;;2.20;1.15;;;20.70;99.90;;;;;;7391640;19;20209;-69
2023/07/18 02:34:44;;;;;;;1.77;1.10;;;20.70;99.90;;;;;;7390448;19;20142;-69
2023/07/18 02:37:10;;;;;;;1.08;0.88;;;20.70;99.90;;;;;;7390857;19;20142;-69
2023/07/18 02:39:38;;;;;;;1.80;0.88;;;20.70;99.90;;;;;;7390237;19;20618;-70
2023/07/18 02:42:08;;;;;;;1.73;1.13;;;20.60;99.90;;;;;;7388642;19;20155;-69
2023/07/18 02:44:33;;;;;;;1.73;1.10;;;20.80;99.90;;;;;;7389469;19;20146;-70
2023/07/18 02:46:59;;;;;;;1.25;0.95;;;20.80;99.90;;;;;;7386624;19;20258;-69
2023/07/18 02:49:25;;;;;;;1.83;1.00;;;20.80;99.90;;;;;;7388906;19;20490;-69
2023/07/18 02:51:50;;;;;;;2.28;0.95;;;20.80;99.90;;;;;;7392090;19;20141;-70
2023/07/18 02:54:17;;;;;;;2.13;1.30;;;20.90;99.90;;;;;;7388485;19;20151;-71
2023/07/18 02:56:43;;;;;;;0.82;0.63;;;20.90;99.90;;;;;;7388448;19;20123;-69
2023/07/18 02:59:09;;;;;;;1.27;0.90;;;20.80;99.90;;;;;;7388819;19;21006;-70
2023/07/18 03:01:34;;;;;;;1.33;0.90;;;20.80;99.90;;;;;;7390086;19;20146;-70
2023/07/18 03:04:00;;;;;;;2.70;1.08;;;20.70;99.90;;;;;;7388544;19;20138;-70
2023/07/18 03:06:27;;;;;;;2.00;0.95;;;20.60;99.90;;;;;;7389010;19;20134;-70
2023/07/18 03:08:53;;;;;;;3.90;1.30;;;20.70;99.90;;;;;;7390131;19;20130;-70
2023/07/18 03:11:19;;;;;;;2.47;1.20;;;20.80;99.90;;;;;;7389038;19;20293;-70
2023/07/18 03:13:45;;;;;;;2.40;1.48;;;20.80;99.90;;;;;;7391758;19;20607;-70
2023/07/18 03:16:11;;;;;;;1.52;1.15;;;20.80;99.90;;;;;;7390571;19;20127;-70
2023/07/18 03:18:37;;;;;;;2.35;1.05;;;20.80;99.90;;;;;;7382746;19;20153;-70
2023/07/18 03:21:03;;;;;;;2.00;0.90;;;20.70;99.90;;;;;;7389863;19;20135;-69
2023/07/18 03:23:29;;;;;;;1.10;0.80;;;20.70;99.90;;;;;;7386747;19;20758;-70
2023/07/18 03:25:55;;;;;;;1.88;0.90;;;20.60;99.90;;;;;;7391293;19;20225;-70
2023/07/18 03:28:21;;;;;;;1.15;0.90;;;20.60;99.90;;;;;;7389578;19;20138;-70
2023/07/18 03:30:47;;;;;;;1.05;0.88;;;20.50;99.90;;;;;;7388804;19;20123;-70
2023/07/18 03:33:15;;;;;;;2.28;1.15;;;20.50;99.90;;;;;;7388857;19;20146;-70
2023/07/18 03:35:40;;;;;;;1.65;1.10;;;20.40;99.90;;;;;;7386362;19;20141;-71
2023/07/18 03:38:06;;;;;;;2.28;1.33;;;20.50;99.90;;;;;;7391013;19;20479;-71
2023/07/18 03:40:32;;;;;;;4.35;0.90;;;20.20;99.90;;;;;;7386459;19;20718;-70
2023/07/18 03:42:58;;;;;;;1.98;1.30;;;20.30;99.90;;;;;;7390575;19;20144;-70
2023/07/18 03:45:23;;;;;;;1.80;1.05;;;20.30;99.90;;;;;;7387144;19;20127;-70
2023/07/18 03:47:49;;;;;;;2.67;0.90;;;19.90;99.90;;;;;;7383107;19;20154;-70
2023/07/18 03:50:16;;;;;;;1.50;1.17;;;20.00;99.90;;;;;;7387663;19;20638;-70
2023/07/18 03:52:42;;;;;;;3.70;1.40;;;20.20;99.90;;;;;;7387280;19;20162;-70
2023/07/18 03:55:08;;;;;;;2.58;1.70;;;20.20;99.90;;;;;;7388961;19;20139;-70
2023/07/18 03:57:34;;;;;;;5.53;1.85;;;20.20;99.90;;;;;;7388258;19;20499;-70
2023/07/18 04:00:02;;;;;;;4.05;1.60;;;20.30;99.90;;;;;;7389742;19;20139;-70
2023/07/18 04:02:27;;;;;;;4.25;2.28;;;20.30;99.90;;;;;;7386493;19;20138;-70
2023/07/18 04:04:56;;;;;;;4.03;2.03;;;20.10;99.90;;;;;;7388024;19;20143;-70
2023/07/18 04:07:21;;;;;;;4.03;2.17;;;20.00;99.90;;;;;;7387306;19;20479;-70
2023/07/18 04:09:47;;;;;;;4.90;2.10;;;19.90;99.90;;;;;;7387010;19;20152;-70
2023/07/18 04:12:15;;;;;;;3.65;2.08;;;19.90;99.90;;;;;;7388913;19;20591;-71
2023/07/18 04:14:42;;;;;;;4.45;2.53;;;19.70;99.90;;;;;;7384500;19;20157;-70
2023/07/18 04:17:08;;;;;;;5.03;2.10;;;19.60;99.90;;;;;;7389090;19;20168;-70
2023/07/18 04:19:34;;;;;;;3.45;2.20;;;19.60;99.90;;;;;;7385975;19;20236;-69
2023/07/18 04:22:00;;;;;;;4.68;1.85;;;19.60;99.90;;;;;;7386801;19;20659;-70
2023/07/18 04:24:26;;;;;;;4.60;2.50;;;20.00;99.90;;;;;;7386145;19;20249;-69
2023/07/18 04:26:51;;;;;;;5.07;2.63;;;20.10;99.90;;;;;;7387564;19;20134;-69
2023/07/18 04:29:18;;;;;;;3.58;2.33;;;20.20;99.90;;;;;;7380855;19;20185;-69
2023/07/18 04:31:45;;;;;;;5.97;2.33;;;20.20;99.90;;;;;;7387563;19;20141;-72
2023/07/18 04:34:11;;;;;;;3.72;2.17;;;20.20;99.90;;;;;;7383641;19;20138;-70
2023/07/18 04:36:37;;;;;;;2.92;2.15;;;20.20;99.90;;;;;;7386421;19;20539;-69
2023/07/18 04:39:03;;;;;;;3.25;2.60;;;20.20;99.90;;;;;;7386165;19;20154;-70
2023/07/18 04:41:29;;;;;;;4.32;2.53;;;20.10;99.90;;;;;;7386217;19;20131;-70
2023/07/18 04:43:55;;;;;;;3.92;2.22;;;20.10;99.90;;;;;;7385294;19;20179;-70
2023/07/18 04:46:20;;;;;;;6.25;2.60;;;20.20;99.90;;;;;;7385221;19;20154;-69
2023/07/18 04:48:46;;;;;;;6.35;2.45;;;20.20;99.90;;;;;;7386916;19;20146;-71
2023/07/18 04:51:12;;;;;;;5.28;2.58;;;20.20;99.90;;;;;;7388297;19;20462;-71
2023/07/18 04:53:38;;;;;;;7.05;2.75;;;20.10;99.90;;;;;;7385909;19;20146;-71
2023/07/18 04:56:05;;;;;;;3.47;2.13;;;20.10;99.90;;;;;;7389274;19;20143;-70
2023/07/18 04:58:31;;;;;;;6.93;2.38;;;20.00;99.90;;;;;;7385651;19;20158;-70
2023/07/18 05:00:59;;;;;;;4.05;2.40;;;20.10;99.90;;;;;;7388294;19;20156;-70
2023/07/18 05:03:25;;;;;;;3.97;2.30;;;19.80;99.90;;;;;;7384616;19;20146;-71
2023/07/18 05:05:52;;;;;;;5.15;2.00;;;19.90;99.90;;;;;;7387975;19;20142;-70
2023/07/18 05:08:17;;;;;;;4.50;2.58;;;20.10;99.90;;;;;;7384469;19;20515;-70
2023/07/18 05:10:43;;;;;;;4.28;2.05;;;20.20;99.90;;;;;;7385580;19;20134;-71
2023/07/18 05:13:10;;;;;;;3.72;2.20;;;20.10;99.90;;;;;;7384294;19;20406;-69
2023/07/18 05:15:36;;;;;;;5.38;2.30;;;19.80;99.90;;;;;;7386589;19;20145;-69
2023/07/18 05:18:03;;;;;;;4.97;2.85;;;20.00;99.90;;;;;;7388564;19;20150;-69
2023/07/18 05:20:29;;;;;;;4.03;2.38;;;20.10;99.90;;;;;;7384076;19;20150;-69
2023/07/18 05:22:55;;;;;;;3.17;2.20;;;20.10;99.90;;;;;;7388252;19;20134;-71
2023/07/18 05:25:21;;;;;;;3.97;2.40;;;20.30;99.90;;;;;;7383754;19;20140;-70
2023/07/18 05:27:47;;;;;;;6.22;2.70;;;20.30;99.90;;;;;;7384944;19;20168;-70
2023/07/18 05:30:14;;;;;;;3.67;2.50;;;20.30;99.90;;;;;;7383817;19;20143;-69
2023/07/18 05:32:41;;;;;;;6.05;2.95;;;20.30;99.90;;;;;;7387984;19;20152;-71
2023/07/18 05:35:11;;;;;;;4.80;2.33;;;20.20;99.90;;;;;;7383352;19;20612;-69
2023/07/18 05:37:38;;;;;;;3.60;2.50;;;20.20;99.90;;;;;;7380280;19;20605;-69
2023/07/18 05:40:05;;;;;;;5.28;2.70;;;20.30;99.90;;;;;;7386185;19;20610;-70
2023/07/18 05:42:31;;;;;;;5.50;2.42;;;20.40;99.90;;;;;;7386211;19;20146;-70
2023/07/18 05:44:57;;;;;;;4.25;2.35;;;20.40;99.90;;;;;;7390213;19;20135;-70
2023/07/18 05:47:23;;;;;;;4.38;2.50;;;20.40;99.90;;;;;;7389961;19;20154;-70
2023/07/18 05:49:49;;;;;;;3.97;2.80;;;20.40;99.90;;;;;;7392279;19;20133;-69
2023/07/18 05:52:14;;;;;;;4.75;2.45;;;20.50;99.90;;;;;;7391254;19;20222;-70
2023/07/18 05:54:40;;;;;;;5.10;2.80;;;20.60;99.90;;;;;;7386284;19;20131;-69
2023/07/18 05:57:06;;;;;;;3.85;2.72;;;20.60;99.90;;;;;;7382537;19;20131;-69
2023/07/18 05:59:32;;;;;;;7.28;3.00;;;20.60;99.90;;;;;;7387037;19;20142;-69
2023/07/18 06:01:59;;;;;;;4.43;2.72;;;20.60;99.90;;;;;;7386829;19;20153;-72
2023/07/18 06:04:25;;;;;;;5.60;2.83;;;20.70;99.90;;;;;;7386942;19;20488;-71
2023/07/18 06:06:50;;;;;;;4.38;2.65;;;20.80;99.90;;;;;;7388406;19;20161;-71
2023/07/18 06:09:16;;;;;;;4.88;2.88;;;20.90;99.90;;;;;;7391360;19;20138;-71
2023/07/18 06:11:42;;;;;;;5.53;2.78;;;20.90;99.90;;;;;;7387841;19;20282;-70
2023/07/18 06:14:08;;;;;;;3.67;2.67;;;20.80;99.90;;;;;;7391415;19;20138;-70
2023/07/18 06:16:37;;;;;;;4.57;3.25;;;20.80;99.90;;;;;;7388097;19;20153;-71
2023/07/18 06:19:03;;;;;;;6.25;2.90;;;20.80;99.90;;;;;;7385302;19;20135;-71
2023/07/18 06:21:28;;;;;;;5.53;3.30;;;21.00;99.90;;;;;;7385816;19;20160;-71
2023/07/18 06:23:54;;;;;;;9.48;2.92;;;21.90;99.90;;;;;;7385294;19;20150;-71
2023/07/18 06:26:20;;;;;;;5.45;2.67;;;24.70;99.90;;;;;;7388961;19;20881;-72
2023/07/18 06:28:46;;;;;;;9.73;2.90;;;27.60;99.80;;;;;;7388023;19;20642;-71
2023/07/18 06:31:14;;;;;;;6.80;2.75;;;29.30;95.70;;;;;;7390643;19;20134;-71
2023/07/18 06:33:40;;;;;;;4.78;2.90;;;29.90;93.50;;;;;;7390318;19;20147;-72
2023/07/18 06:36:06;;;;;;;5.07;2.35;;;30.40;91.60;;;;;;7392741;19;20538;-71
2023/07/18 06:38:32;;;;;;;5.63;2.58;;;31.20;89.70;;;;;;7391951;19;20135;-71
2023/07/18 06:40:58;;;;;;;6.30;2.70;;;31.50;86.70;;;;;;7392484;19;20135;-71
2023/07/18 06:43:24;;;;;;;4.93;2.58;;;31.80;84.20;;;;;;7389383;19;20164;-71
2023/07/18 06:45:50;;;;;;;3.38;2.35;;;32.80;80.90;;;;;;7392119;19;20151;-71
2023/07/18 06:48:17;;;;;;;6.47;2.60;;;32.40;78.90;;;;;;7388147;19;20203;-71
2023/07/18 06:50:48;;;;;;;4.80;2.40;;;33.20;78.00;;;;;;7389723;19;20142;-71
2023/07/18 06:53:20;;;;;;;3.10;2.10;;;33.90;75.00;;;;;;7389228;19;20146;-72
2023/07/18 06:55:49;;;;;;;2.97;2.00;;;34.50;71.40;;;;;;7390296;19;20579;-72
2023/07/18 06:58:19;;;;;;;2.45;1.90;;;34.00;70.90;;;;;;7391268;19;20139;-73
2023/07/18 07:00:46;;;;;;;3.90;2.28;;;34.10;70.20;;;;;;7389086;19;20143;-72
2023/07/18 07:03:13;;;;;;;5.75;2.13;;;33.60;70.00;;;;;;7391512;19;20567;-73
2023/07/18 07:05:40;;;;;;;4.63;1.50;;;32.10;71.50;;;;;;7389802;19;20153;-72
2023/07/18 07:08:10;;;;;;;5.95;1.95;;;30.80;74.00;;;;;;7388186;19;20139;-73
2023/07/18 07:10:36;;;;;;;4.93;2.17;;;30.70;74.90;;;;;;7388553;19;20135;-73
2023/07/18 07:13:02;;;;;;;3.85;1.90;;;30.50;75.20;;;;;;7390363;19;20476;-72
2023/07/18 07:15:28;;;;;;;3.58;2.13;;;29.80;76.60;;;;;;7386876;19;20157;-72
2023/07/18 07:17:54;;;;;;;4.70;2.08;;;29.80;77.40;;;;;;7388338;19;20229;-72
2023/07/18 07:20:20;;;;;;;4.20;1.98;;;29.60;77.70;;;;;;7387911;19;20153;-73
2023/07/18 07:22:47;;;;;;;5.35;2.00;;;29.40;78.00;;;;;;7389523;19;20162;-72
2023/07/18 07:25:16;;;;;;;4.68;2.40;;;29.20;79.10;;;;;;7384905;19;20134;-72
2023/07/18 07:27:44;;;;;;;3.75;2.03;;;28.70;80.00;;;;;;7389581;19;20149;-71
2023/07/18 07:30:20;;;;;;;3.55;1.90;;;28.70;80.20;;;;;;7388947;19;20169;-72
2023/07/18 07:32:48;;;;;;;2.92;1.92;;;28.70;79.70;;;;;;7388541;19;20443;-72
2023/07/18 07:35:16;;;;;;;4.72;1.98;;;28.10;80.70;;;;;;7389669;19;20160;-72
2023/07/18 07:37:42;;;;;;;4.07;2.00;;;28.10;81.70;;;;;;7388360;19;20172;-73
2023/07/18 07:40:11;;;;;;;3.20;1.70;;;28.00;81.10;;;;;;7386817;19;20151;-72
2023/07/18 07:42:44;;;;;;;4.82;2.03;;;27.80;81.80;;;;;;7389968;19;20149;-72
2023/07/18 07:45:10;;;;;;;2.55;1.70;;;27.90;82.10;;;;;;7386932;19;20157;-73
2023/07/18 07:47:36;;;;;;;3.03;1.88;;;28.20;82.20;;;;;;7383757;19;20178;-72
2023/07/18 07:50:07;;;;;;;5.72;2.38;;;28.00;82.80;;;;;;7387034;19;20159;-71
2023/07/18 07:52:34;;;;;;;3.47;2.05;;;28.00;82.70;;;;;;7385702;19;20154;-72
2023/07/18 07:55:00;;;;;;;4.43;2.10;;;27.80;83.20;;;;;;7389724;19;20655;-72
2023/07/18 07:57:29;;;;;;;5.07;2.92;;;27.90;83.20;;;;;;7386139;19;20157;-73
2023/07/18 07:59:55;;;;;;;3.65;2.10;;;27.80;83.40;;;;;;7387390;19;20142;-73
2023/07/18 08:02:20;;;;;;;4.85;1.90;;;27.70;83.20;;;;;;7388792;19;20138;-72
2023/07/18 08:04:49;;;;;;;3.92;2.05;;;27.70;82.80;;;;;;7383564;19;20495;-71
2023/07/18 08:07:16;;;;;;;5.97;2.00;;;27.70;82.60;;;;;;7387517;19;20591;-72
2023/07/18 08:09:43;;;;;;;5.03;1.80;;;27.90;81.30;;;;;;7386104;19;20150;-72
2023/07/18 08:12:11;;;;;;;5.38;2.03;;;27.50;82.30;;;;;;7391035;19;20881;-72
2023/07/18 08:14:39;;;;;;;3.17;2.03;;;27.50;83.30;;;;;;7388826;19;20135;-72
2023/07/18 08:17:06;;;;;;;4.28;1.70;;;27.90;82.70;;;;;;7388076;19;20141;-72
2023/07/18 08:19:33;;;;;;;5.15;2.40;;;28.10;81.00;;;;;;7389377;19;20545;-71
2023/07/18 08:22:03;;;;;;;3.65;1.80;;;27.90;81.40;;;;;;7386686;19;20150;-73
2023/07/18 08:24:29;;;;;;;5.95;2.03;;;28.00;81.90;;;;;;7385928;19;20143;-72
2023/07/18 08:26:56;;;;;;;3.63;2.08;;;28.20;81.90;;;;;;7384132;19;20469;-73
2023/07/18 08:29:24;;;;;;;4.13;2.95;;;28.40;81.60;;;;;;7387462;19;20145;-73
2023/07/18 08:31:51;;;;;;;5.30;2.00;;;28.60;80.90;;;;;;7385270;19;20175;-72
2023/07/18 08:34:17;;;;;;;4.72;2.80;;;28.50;80.70;;;;;;7386963;19;20139;-72
2023/07/18 08:36:46;;;;;;;4.07;2.95;;;28.30;82.30;;;;;;7386631;19;20205;-72
2023/07/18 08:39:12;;;;;;;6.10;2.70;;;28.80;81.20;;;;;;7389839;19;20198;-72
2023/07/18 08:41:41;;;;;;;2.42;1.60;;;29.40;78.80;;;;;;7388991;19;20530;-73
2023/07/18 08:44:07;;;;;;;3.42;1.80;;;29.50;78.30;;;;;;7387429;19;20178;-73
2023/07/18 08:46:34;;;;;;;3.35;2.00;;;29.50;78.20;;;;;;7387365;19;20150;-74
2023/07/18 08:49:00;;;;;;;2.58;1.45;;;29.60;77.50;;;;;;7389389;19;20210;-73
2023/07/18 08:51:28;;;;;;;2.58;1.45;;;29.00;77.90;;;;;;7387292;19;20146;-73
2023/07/18 08:53:53;;;;;;;3.03;1.30;;;28.70;78.70;;;;;;7387077;19;20173;-73
2023/07/18 08:56:20;;;;;;;3.92;1.80;;;28.10;79.60;;;;;;7386956;19;20138;-73
2023/07/18 08:58:46;;;;;;;3.75;2.08;;;27.80;80.30;;;;;;7388402;19;20628;-73
2023/07/18 09:01:11;;;;;;;4.43;1.80;;;27.50;81.10;;;;;;7387629;19;20169;-73
2023/07/18 09:03:37;;;;;;;2.78;1.52;;;27.20;81.90;;;;;;7386069;19;20147;-72
2023/07/18 09:06:15;;;;;;;4.82;1.40;;;26.90;82.30;;;;;;7388910;19;20479;-72
2023/07/18 09:08:50;;;;;;;4.47;1.90;;;26.90;83.00;;;;;;7386687;19;20149;-73
2023/07/18 09:11:19;;;;;;;3.08;1.42;;;26.90;82.80;;;;;;7386769;19;20138;-73
2023/07/18 09:13:46;;;;;;;2.72;1.55;;;26.90;83.20;;;;;;7388857;19;20142;-73
2023/07/18 09:16:13;;;;;;;3.63;1.40;;;26.70;83.50;;;;;;7385153;19;20205;-72
2023/07/18 09:18:42;;;;;;;2.30;1.45;;;26.80;83.70;;;;;;7386412;19;20250;-72
2023/07/18 09:21:11;;;;;;;3.20;1.70;;;26.90;83.90;;;;;;7388706;19;20146;-73
2023/07/18 09:23:41;;;;;;;2.88;1.73;;;27.00;83.30;;;;;;7386511;19;20640;-73
2023/07/18 09:26:21;;;;;;;2.45;1.50;;;27.10;83.40;;;;;;7385323;19;20146;-73
2023/07/18 09:28:48;;;;;;;6.90;4.18;;;27.10;83.20;;;;;;7387424;19;20201;-75
2023/07/18 09:31:25;;;;;;;5.38;2.05;;;27.20;83.80;;;;;;7385833;19;20142;-74
2023/07/18 09:33:52;;;;;;;2.90;1.60;;;27.00;83.20;;;;;;7386491;19;20142;-73
2023/07/18 09:36:24;;;;;;;2.33;1.73;;;26.80;83.80;;;;;;7385478;19;20142;-74
2023/07/18 09:38:51;;;;;;;3.60;1.90;;;26.80;84.50;;;;;;7386886;19;20150;-74
2023/07/18 09:41:19;;;;;;;6.72;2.58;;;27.00;83.80;;;;;;7387014;19;20182;-74
2023/07/18 09:43:45;;;;;;;4.07;1.90;;;27.00;83.90;;;;;;7385891;19;20142;-73
2023/07/18 09:46:13;;;;;;;2.55;1.98;;;26.90;84.20;;;;;;7386085;19;20167;-71
2023/07/18 09:48:40;;;;;;;2.38;1.80;;;27.00;85.10;;;;;;7384853;19;20695;-73
2023/07/18 09:51:13;;;;;;;4.78;1.83;;;27.30;84.50;;;;;;7386083;19;20142;-74
2023/07/18 09:53:41;;;;;;;4.30;1.98;;;27.30;83.50;;;;;;7387256;19;20657;-73
2023/07/18 09:56:09;;;;;;;3.95;1.95;;;27.10;84.20;;;;;;7386318;19;20165;-73
2023/07/18 09:58:38;;;;;;;5.43;1.90;;;27.40;83.90;;;;;;7384268;19;20173;-74
2023/07/18 10:01:07;;;;;;;3.35;1.95;;;27.80;83.70;;;;;;7384080;19;20173;-73
2023/07/18 10:03:33;;;;;;;3.95;2.20;;;28.00;82.00;;;;;;7383237;19;20210;-73
2023/07/18 10:05:59;;;;;;;13.43;1.98;;;27.90;82.00;;;;;;7383845;19;20246;-73
2023/07/18 10:08:25;;;;;;;2.92;1.80;;;28.00;83.10;;;;;;7382718;19;20148;-74
2023/07/18 10:11:07;;;;;;;4.55;2.38;;;28.10;82.80;;;;;;7385540;19;20194;-73
2023/07/18 10:13:55;;;;;;;3.55;1.90;;;28.30;82.90;;;;;;7384667;19;20150;-73
2023/07/18 10:16:22;;;;;;;4.35;1.92;;;28.10;80.90;;;;;;7383992;19;20460;-74
2023/07/18 10:18:53;;;;;;;3.00;1.90;;;27.80;82.20;;;;;;7384324;19;20139;-73
2023/07/18 10:21:33;;;;;;;2.22;1.75;;;27.70;83.30;;;;;;7385718;19;20157;-73
2023/07/18 10:24:21;;;;;;;3.83;1.83;;;27.70;83.10;;;;;;7383892;19;20154;-73
2023/07/18 10:26:48;;;;;;;6.80;2.00;;;27.50;83.60;;;;;;7380202;19;20146;-74
2023/07/18 10:29:14;;;;;;;3.10;2.13;;;27.30;83.10;;;;;;7386768;19;20142;-73
2023/07/18 10:31:40;;;;;;;1.52;1.40;;;27.10;85.10;;;;;;7391803;19;20138;-74
2023/07/18 10:34:11;;;;;;;3.17;2.30;;;27.00;84.90;;;;;;7388333;19;20478;-72
2023/07/18 10:36:38;;;;;;;2.05;1.73;;;26.80;84.40;;;;;;7390469;19;20138;-73
2023/07/18 10:39:12;;;;;;;2.90;2.00;;;26.60;85.70;;;;;;7387775;19;20135;-71
2023/07/18 10:41:45;;;;;;;3.83;2.03;;;26.50;86.40;;;;;;7389824;19;20126;-74
2023/07/18 10:44:14;;;;;;;2.47;1.80;;;26.50;86.70;;;;;;7387054;19;20141;-73
2023/07/18 10:46:40;;;;;;;4.95;2.40;;;26.60;86.90;;;;;;7388051;19;20178;-73
2023/07/18 10:49:07;;;;;;;4.35;2.20;;;26.70;86.80;;;;;;7389673;19;20513;-72
2023/07/18 10:51:33;;;;;;;2.58;1.73;;;27.00;86.40;;;;;;7390698;19;20127;-74
2023/07/18 10:53:59;;;;;;;3.17;2.10;;;27.00;85.40;;;;;;7388208;19;20134;-73
2023/07/18 10:56:26;;;;;;;2.13;1.60;;;27.00;85.70;;;;;;7389915;19;20610;-72
2023/07/18 10:58:52;;;;;;;3.53;2.03;;;27.10;86.00;;;;;;7386794;19;20169;-74
2023/07/18 11:01:18;;;;;;;2.50;1.77;;;27.20;85.40;;;;;;7391476;19;20138;-72
2023/07/18 11:03:47;;;;;;;3.72;1.85;;;27.50;86.70;;;;;;7389259;19;20131;-72
2023/07/18 11:06:16;;;;;;;3.78;1.95;;;27.70;85.40;;;;;;7388065;19;20634;-75
2023/07/18 11:08:45;;;;;;;3.35;2.20;;;27.80;85.40;;;;;;7390183;19;20550;-73
2023/07/18 11:11:11;;;;;;;5.55;3.10;;;28.00;84.90;;;;;;7389629;19;20134;-73
2023/07/18 11:13:49;;;;;;;5.68;3.30;;;28.10;85.10;;;;;;7389874;19;20154;-73
2023/07/18 11:16:15;;;;;;;4.75;2.40;;;27.90;85.00;;;;;;7385247;19;20157;-73
2023/07/18 11:18:45;;;;;;;5.25;2.33;;;27.80;85.20;;;;;;7387944;19;20146;-73
2023/07/18 11:21:16;;;;;;;4.68;2.45;;;27.70;84.80;;;;;;7389031;19;20154;-72
2023/07/18 11:23:42;;;;;;;4.07;3.55;;;27.60;85.90;;;;;;7386234;19;20135;-72
2023/07/18 11:26:14;;;;;;;3.90;2.10;;;27.30;86.10;;;;;;7388267;19;20198;-74
2023/07/18 11:28:44;;;;;;;3.08;2.00;;;27.20;86.80;;;;;;7387371;19;20131;-73
2023/07/18 11:31:24;;;;;;;5.05;1.90;;;27.00;87.10;;;;;;7388364;19;20160;-72
2023/07/18 11:34:08;;;;;;;4.38;2.67;;;27.10;87.80;;;;;;7387652;19;20144;-73
2023/07/18 11:36:36;;;;;;;3.88;2.90;;;27.00;88.20;;;;;;7385863;19;20154;-73
2023/07/18 11:39:04;;;;;;;4.15;3.00;;;27.00;88.50;;;;;;7387591;19;20205;-74
2023/07/18 11:41:39;;;;;;;3.03;1.98;;;27.00;89.00;;;;;;7385792;19;20486;-74
2023/07/18 11:44:08;;;;;;;5.63;2.00;;;26.80;89.00;;;;;;7387312;19;20154;-74
2023/07/18 11:46:43;;;;;;;3.95;2.40;;;26.90;90.00;;;;;;7385471;19;20189;-73
2023/07/18 11:49:12;;;;;;;2.17;1.80;;;26.90;90.20;;;;;;7387057;19;20146;-74
2023/07/18 11:51:40;;;;;;;2.90;2.10;;;26.70;90.50;;;;;;7386838;19;20146;-73
2023/07/18 11:54:06;;;;;;;3.03;1.92;;;26.80;90.90;;;;;;7385926;19;20255;-74
2023/07/18 11:56:37;;;;;;;4.53;2.40;;;26.60;91.50;;;;;;7382893;19;20154;-73
2023/07/18 11:59:03;;;;;;;3.50;2.05;;;26.60;93.90;;;;;;7384337;19;20154;-71
2023/07/18 12:01:31;;;;;;;3.03;2.10;;;26.60;94.90;;;;;;7383250;19;20234;-72
2023/07/18 12:03:56;;;;;;;2.15;1.80;;;26.70;95.50;;;;;;7382626;19;20231;-73
2023/07/18 12:06:22;;;;;;;5.22;2.00;;;26.90;92.80;;;;;;7384115;19;20135;-72
2023/07/18 12:08:52;;;;;;;3.40;2.08;;;26.90;93.20;;;;;;7382050;19;20127;-72
2023/07/18 12:11:18;;;;;;;2.78;1.85;;;26.70;93.40;;;;;;7382745;19;20138;-72
2023/07/18 12:13:44;;;;;;;4.90;2.42;;;26.90;93.40;;;;;;7385309;19;20145;-73
2023/07/18 12:16:09;;;;;;;4.15;2.55;;;27.00;93.10;;;;;;7385393;19;20250;-73
2023/07/18 12:18:38;;;;;;;3.60;2.35;;;27.00;93.20;;;;;;7385729;19;20575;-73
2023/07/18 12:21:04;;;;;;;4.25;2.17;;;27.10;93.00;;;;;;7385874;19;20138;-73
2023/07/18 12:23:30;;;;;;;3.08;2.17;;;27.10;92.70;;;;;;7385495;19;20608;-71
2023/07/18 12:25:55;;;;;;;3.92;2.67;;;27.10;92.80;;;;;;7384658;19;20146;-75
2023/07/18 12:28:21;;;;;;;3.45;2.72;;;27.20;92.90;;;;;;7388109;19;20135;-74
2023/07/18 12:30:47;;;;;;;2.50;2.20;;;27.30;92.90;;;;;;7385412;19;20142;-73
2023/07/18 12:33:14;;;;;;;3.45;1.90;;;27.40;92.40;;;;;;7389826;19;20599;-74
2023/07/18 12:35:40;;;;;;;3.97;2.63;;;27.50;92.40;;;;;;7384753;19;20146;-72
2023/07/18 12:38:06;;;;;;;8.15;2.28;;;27.60;92.60;;;;;;7390863;19;20131;-72
2023/07/18 12:40:32;;;;;;;4.55;2.25;;;27.70;92.70;;;;;;7387988;19;20143;-73
2023/07/18 12:42:58;;;;;;;7.75;2.35;;;27.70;92.30;;;;;;7387132;19;20626;-73
2023/07/18 12:45:24;;;;;;;2.90;2.28;;;27.70;92.30;;;;;;7383576;19;20150;-73
2023/07/18 12:47:50;;;;;;;4.80;2.85;;;27.60;92.70;;;;;;7385096;19;20619;-74